Time;durP1;ratioP1;P1;durP2;ratioP2;P2;SDS_P1;SDS_P2;PMS_P1;PMS_P2;Temp;Humidity;BMP_temperature;BMP_pressure;BME280_temperature;BME280_humidity;BME280_pressure;Samples;Min_cycle;Max_cycle;Signal;HPM_P1;HPM_P2
2024/02/21 00:00:23;;;;;;;18.70;3.37;;;;;;;;;;5095573;28;20518;-30
2024/02/21 00:02:48;;;;;;;17.55;3.30;;;;;;;;;;5095390;28;20258;-30
2024/02/21 00:05:13;;;;;;;17.67;3.23;;;;;;;;;;5113696;28;20165;-29
2024/02/21 00:07:38;;;;;;;17.37;3.47;;;;;;;;;;5114239;28;20249;-29
2024/02/21 00:10:04;;;;;;;17.70;3.27;;;;;;;;;;5114329;28;20245;-29
2024/02/21 00:12:29;;;;;;;20.10;3.70;;;;;;;;;;5113628;28;20332;-29
2024/02/21 00:14:54;;;;;;;18.10;3.33;;;;;;;;;;5114239;28;20016;-29
2024/02/21 00:17:19;;;;;;;20.10;3.73;;;;;;;;;;5113705;28;20389;-29
2024/02/21 00:19:45;;;;;;;18.50;3.15;;;;;;;;;;5095462;28;20269;-29
2024/02/21 00:22:10;;;;;;;22.75;3.70;;;;;;;;;;5096165;28;20524;-29
2024/02/21 00:24:35;;;;;;;13.93;3.77;;;;;;;;;;5113601;28;20382;-29
2024/02/21 00:27:00;;;;;;;16.33;3.28;;;;;;;;;;5113867;28;20249;-29
2024/02/21 00:29:27;;;;;;;17.67;3.57;;;;;;;;;;5113502;28;20015;-29
2024/02/21 00:31:52;;;;;;;24.38;4.05;;;;;;;;;;5113843;28;20253;-29
2024/02/21 00:34:17;;;;;;;19.90;3.40;;;;;;;;;;5113489;28;20368;-29
2024/02/21 00:36:42;;;;;;;15.05;3.33;;;;;;;;;;5114049;28;20264;-29
2024/02/21 00:39:08;;;;;;;21.80;3.88;;;;;;;;;;5113470;28;20019;-29
2024/02/21 00:41:33;;;;;;;19.77;3.73;;;;;;;;;;5113111;28;20032;-29
2024/02/21 00:43:58;;;;;;;20.65;3.33;;;;;;;;;;5112342;28;20284;-29
2024/02/21 00:46:23;;;;;;;19.85;3.83;;;;;;;;;;5095105;28;20019;-29
2024/02/21 00:48:49;;;;;;;20.17;3.23;;;;;;;;;;5113936;28;20016;-29
2024/02/21 00:51:15;;;;;;;22.38;3.90;;;;;;;;;;5097631;28;20767;-29
2024/02/21 00:53:40;;;;;;;21.15;3.55;;;;;;;;;;5117175;28;20047;-29
2024/02/21 00:56:05;;;;;;;17.47;3.60;;;;;;;;;;5117709;28;20066;-29
2024/02/21 00:58:31;;;;;;;23.63;3.75;;;;;;;;;;5117108;28;20342;-29
2024/02/21 01:00:56;;;;;;;16.20;3.28;;;;;;;;;;5117053;28;20020;-29
2024/02/21 01:03:21;;;;;;;17.43;3.63;;;;;;;;;;5116777;28;20206;-29
2024/02/21 01:05:46;;;;;;;19.20;3.73;;;;;;;;;;5117522;28;20252;-29
2024/02/21 01:08:11;;;;;;;18.73;3.33;;;;;;;;;;5116943;28;20242;-29
2024/02/21 01:10:37;;;;;;;19.57;3.50;;;;;;;;;;5117423;28;20332;-29
2024/02/21 01:13:02;;;;;;;31.17;4.73;;;;;;;;;;5116702;28;20253;-29
2024/02/21 01:15:27;;;;;;;21.23;3.75;;;;;;;;;;5117349;28;20253;-29
2024/02/21 01:17:54;;;;;;;17.88;3.38;;;;;;;;;;5117332;28;20015;-29
2024/02/21 01:20:20;;;;;;;25.88;4.43;;;;;;;;;;5116678;28;20023;-29
2024/02/21 01:22:45;;;;;;;19.92;3.58;;;;;;;;;;5117166;28;20011;-28
2024/02/21 01:25:10;;;;;;;18.97;3.87;;;;;;;;;;5116554;28;20023;-29
2024/02/21 01:27:35;;;;;;;17.60;3.23;;;;;;;;;;5117166;28;20257;-29
2024/02/21 01:30:00;;;;;;;17.00;3.53;;;;;;;;;;5116522;28;20271;-29
2024/02/21 01:32:26;;;;;;;18.42;3.65;;;;;;;;;;5117093;28;20111;-29
2024/02/21 01:34:51;;;;;;;16.10;3.88;;;;;;;;;;5116772;28;20530;-30
2024/02/21 01:37:16;;;;;;;21.17;4.07;;;;;;;;;;5116433;28;20378;-29
2024/02/21 01:39:42;;;;;;;20.97;3.30;;;;;;;;;;5116837;28;20019;-29
2024/02/21 01:42:07;;;;;;;24.23;3.70;;;;;;;;;;5116247;28;20694;-29
2024/02/21 01:44:32;;;;;;;26.25;4.13;;;;;;;;;;5116754;28;20307;-29
2024/02/21 01:46:57;;;;;;;22.27;3.83;;;;;;;;;;5116226;28;20423;-29
2024/02/21 01:49:22;;;;;;;18.08;3.47;;;;;;;;;;5116173;28;20317;-29
2024/02/21 01:51:48;;;;;;;19.67;3.33;;;;;;;;;;5116087;28;20019;-29
2024/02/21 01:54:13;;;;;;;23.80;3.55;;;;;;;;;;5116120;28;20027;-29
2024/02/21 01:56:39;;;;;;;24.63;3.53;;;;;;;;;;5116609;28;20149;-29
2024/02/21 01:59:04;;;;;;;19.65;3.40;;;;;;;;;;5116521;28;20019;-28
2024/02/21 02:01:29;;;;;;;26.13;3.63;;;;;;;;;;5115837;28;20081;-29
2024/02/21 02:03:54;;;;;;;26.20;3.75;;;;;;;;;;5115723;28;20058;-30
2024/02/21 02:06:20;;;;;;;19.88;2.90;;;;;;;;;;5115866;28;20016;-29
2024/02/21 02:08:45;;;;;;;25.77;3.80;;;;;;;;;;5116125;28;20020;-29
2024/02/21 02:11:10;;;;;;;20.37;3.40;;;;;;;;;;5115667;28;20433;-29
2024/02/21 02:13:36;;;;;;;17.50;3.00;;;;;;;;;;5115722;28;20298;-29
2024/02/21 02:16:01;;;;;;;18.02;2.88;;;;;;;;;;5115907;28;20085;-29
2024/02/21 02:18:26;;;;;;;28.65;3.40;;;;;;;;;;5115868;28;20048;-29
2024/02/21 02:20:52;;;;;;;26.08;3.90;;;;;;;;;;5115866;28;20023;-30
2024/02/21 02:23:20;;;;;;;20.15;3.28;;;;;;;;;;5115463;28;20484;-29
2024/02/21 02:25:45;;;;;;;18.75;3.53;;;;;;;;;;5115439;28;20022;-35
2024/02/21 02:28:10;;;;;;;19.45;3.58;;;;;;;;;;5115470;28;20015;-30
2024/02/21 02:30:36;;;;;;;22.60;3.20;;;;;;;;;;5115943;28;20023;-29
2024/02/21 02:33:01;;;;;;;18.08;2.92;;;;;;;;;;5115360;28;20257;-30
2024/02/21 02:35:27;;;;;;;22.98;3.83;;;;;;;;;;5097057;28;20024;-29
2024/02/21 02:37:52;;;;;;;19.92;3.40;;;;;;;;;;5115794;28;20018;-29
2024/02/21 02:40:18;;;;;;;25.23;3.57;;;;;;;;;;5115530;28;20027;-29
2024/02/21 02:42:43;;;;;;;14.48;2.58;;;;;;;;;;5115448;28;20658;-29
2024/02/21 02:45:08;;;;;;;20.80;3.00;;;;;;;;;;5115012;28;20050;-29
2024/02/21 02:47:34;;;;;;;16.60;3.10;;;;;;;;;;5115034;28;20261;-30
2024/02/21 02:49:59;;;;;;;15.88;3.17;;;;;;;;;;5115018;28;20051;-29
2024/02/21 02:52:25;;;;;;;21.92;3.55;;;;;;;;;;5114976;28;20072;-29
2024/02/21 02:54:51;;;;;;;17.42;3.28;;;;;;;;;;5115518;28;20019;-29
2024/02/21 02:57:17;;;;;;;20.98;4.03;;;;;;;;;;5114535;28;20016;-30
2024/02/21 02:59:42;;;;;;;22.58;3.47;;;;;;;;;;5114341;28;20356;-30
2024/02/21 03:02:07;;;;;;;23.37;3.77;;;;;;;;;;5095346;28;20015;-30
2024/02/21 03:04:32;;;;;;;14.90;2.87;;;;;;;;;;5114058;28;20686;-29
2024/02/21 03:06:58;;;;;;;21.05;3.58;;;;;;;;;;5114444;28;20261;-29
2024/02/21 03:09:23;;;;;;;24.63;3.90;;;;;;;;;;5114507;28;20535;-29
2024/02/21 03:11:48;;;;;;;24.13;3.35;;;;;;;;;;5114398;28;20470;-29
2024/02/21 03:14:13;;;;;;;20.63;3.80;;;;;;;;;;5114639;28;20138;-29
2024/02/21 03:16:39;;;;;;;17.52;3.28;;;;;;;;;;5114522;28;20254;-29
2024/02/21 03:19:04;;;;;;;19.95;3.50;;;;;;;;;;5114462;28;20114;-30
2024/02/21 03:21:29;;;;;;;19.67;4.87;;;;;;;;;;5114419;28;20072;-29
2024/02/21 03:23:54;;;;;;;22.67;3.87;;;;;;;;;;5114226;28;20885;-29
2024/02/21 03:26:19;;;;;;;14.13;3.15;;;;;;;;;;5114419;28;20253;-29
2024/02/21 03:28:46;;;;;;;21.87;3.57;;;;;;;;;;5114582;28;20011;-29
2024/02/21 03:31:12;;;;;;;20.67;3.30;;;;;;;;;;5114601;28;20292;-29
2024/02/21 03:33:38;;;;;;;15.50;3.75;;;;;;;;;;5114577;28;20386;-30
2024/02/21 03:36:03;;;;;;;20.30;3.42;;;;;;;;;;5114152;28;20016;-29
2024/02/21 03:38:28;;;;;;;20.65;3.72;;;;;;;;;;5114138;28;20024;-29
2024/02/21 03:40:54;;;;;;;20.90;4.30;;;;;;;;;;5114703;28;20355;-29
2024/02/21 03:43:19;;;;;;;21.00;4.03;;;;;;;;;;5095694;28;20030;-29
2024/02/21 03:45:44;;;;;;;20.10;3.83;;;;;;;;;;5114261;28;20301;-30
2024/02/21 03:48:09;;;;;;;19.13;3.90;;;;;;;;;;5114654;28;20613;-29
2024/02/21 03:50:34;;;;;;;19.23;3.50;;;;;;;;;;5113973;28;20261;-29
2024/02/21 03:53:00;;;;;;;16.58;4.30;;;;;;;;;;5095743;28;20639;-29
2024/02/21 03:55:25;;;;;;;21.63;4.07;;;;;;;;;;5114462;28;20023;-31
2024/02/21 03:57:50;;;;;;;11.93;3.25;;;;;;;;;;5095676;28;20262;-30
2024/02/21 04:00:15;;;;;;;16.83;3.92;;;;;;;;;;5113927;28;20019;-30
2024/02/21 04:02:41;;;;;;;14.40;4.00;;;;;;;;;;5113873;28;20027;-30
2024/02/21 04:05:09;;;;;;;17.53;3.90;;;;;;;;;;5113831;28;20526;-29
2024/02/21 04:07:34;;;;;;;14.85;3.47;;;;;;;;;;5114085;28;20333;-29
2024/02/21 04:09:59;;;;;;;17.87;4.70;;;;;;;;;;5113813;28;20523;-29
2024/02/21 04:12:24;;;;;;;16.80;4.00;;;;;;;;;;5114272;28;20263;-29
2024/02/21 04:14:50;;;;;;;19.67;3.83;;;;;;;;;;5113772;28;20241;-29
2024/02/21 04:17:15;;;;;;;12.07;3.87;;;;;;;;;;5114293;28;20336;-30
2024/02/21 04:19:40;;;;;;;20.63;5.13;;;;;;;;;;5113670;28;20259;-29
2024/02/21 04:22:05;;;;;;;17.93;4.47;;;;;;;;;;5095473;28;20271;-29
2024/02/21 04:24:30;;;;;;;18.23;4.67;;;;;;;;;;5113600;28;20373;-29
2024/02/21 04:26:55;;;;;;;23.43;5.60;;;;;;;;;;5118108;28;20242;-29
2024/02/21 04:29:20;;;;;;;19.80;6.13;;;;;;;;;;5117843;28;20646;-29
2024/02/21 04:31:46;;;;;;;19.17;6.17;;;;;;;;;;5118245;28;20303;-29
2024/02/21 04:34:11;;;;;;;17.37;6.23;;;;;;;;;;5117949;28;20258;-30
2024/02/21 04:36:36;;;;;;;14.30;5.03;;;;;;;;;;5118226;28;20253;-29
2024/02/21 04:39:01;;;;;;;16.13;5.55;;;;;;;;;;5117874;28;20624;-29
2024/02/21 04:41:26;;;;;;;13.90;5.30;;;;;;;;;;5117009;28;20020;-29
2024/02/21 04:43:52;;;;;;;20.23;5.20;;;;;;;;;;5116369;28;20023;-29
2024/02/21 04:46:17;;;;;;;15.63;5.05;;;;;;;;;;5117317;28;20257;-29
2024/02/21 04:48:42;;;;;;;16.15;4.78;;;;;;;;;;5117380;28;20412;-28
2024/02/21 04:51:07;;;;;;;15.95;5.55;;;;;;;;;;5117253;28;20012;-29
2024/02/21 04:53:32;;;;;;;15.17;5.57;;;;;;;;;;5117826;28;20031;-29
2024/02/21 04:55:58;;;;;;;14.05;5.25;;;;;;;;;;5117534;28;20724;-29
2024/02/21 04:58:23;;;;;;;15.57;5.82;;;;;;;;;;5117478;28;20504;-29
2024/02/21 05:00:49;;;;;;;13.13;5.40;;;;;;;;;;5117179;28;20020;-29
2024/02/21 05:03:14;;;;;;;21.23;5.63;;;;;;;;;;5117284;28;20040;-29
2024/02/21 05:05:39;;;;;;;15.30;5.60;;;;;;;;;;5117658;28;20024;-29
2024/02/21 05:08:04;;;;;;;16.63;5.80;;;;;;;;;;5117574;28;20256;-29
2024/02/21 05:10:30;;;;;;;16.95;6.20;;;;;;;;;;5117270;28;20629;-29
2024/02/21 05:12:55;;;;;;;17.05;5.60;;;;;;;;;;5116844;28;20463;-29
2024/02/21 05:15:20;;;;;;;17.03;6.33;;;;;;;;;;5117520;28;20020;-30
2024/02/21 05:17:45;;;;;;;15.00;6.20;;;;;;;;;;5117090;28;20253;-29
2024/02/21 05:20:10;;;;;;;12.60;6.07;;;;;;;;;;5116790;28;20449;-29
2024/02/21 05:22:36;;;;;;;11.80;5.93;;;;;;;;;;5117342;28;20258;-29
2024/02/21 05:25:01;;;;;;;17.83;6.07;;;;;;;;;;5116673;28;20458;-29
2024/02/21 05:27:26;;;;;;;12.33;5.60;;;;;;;;;;5117216;28;20260;-29
2024/02/21 05:29:53;;;;;;;15.35;6.18;;;;;;;;;;5116614;28;20245;-29
2024/02/21 05:32:18;;;;;;;13.45;6.82;;;;;;;;;;5116567;28;20018;-29
2024/02/21 05:34:43;;;;;;;16.48;6.15;;;;;;;;;;5116535;28;20378;-29
2024/02/21 05:37:08;;;;;;;13.93;6.63;;;;;;;;;;5115969;28;20020;-30
2024/02/21 05:39:33;;;;;;;18.37;6.77;;;;;;;;;;5116999;28;20246;-29
2024/02/21 05:41:58;;;;;;;19.67;7.20;;;;;;;;;;5116900;28;20288;-30
2024/02/21 05:44:24;;;;;;;16.27;7.23;;;;;;;;;;5116202;28;20274;-28
2024/02/21 05:46:49;;;;;;;12.68;6.28;;;;;;;;;;5116246;28;20277;-29
2024/02/21 05:49:14;;;;;;;13.50;6.30;;;;;;;;;;5116744;28;20012;-29
2024/02/21 05:51:39;;;;;;;10.57;6.80;;;;;;;;;;5116198;28;20720;-28
2024/02/21 05:54:04;;;;;;;15.60;7.53;;;;;;;;;;5116671;28;20254;-29
2024/02/21 05:56:30;;;;;;;16.00;7.03;;;;;;;;;;5116079;28;20792;-28
2024/02/21 05:58:55;;;;;;;13.68;7.00;;;;;;;;;;5116012;28;20024;-29
2024/02/21 06:01:21;;;;;;;20.37;7.60;;;;;;;;;;5116028;28;20378;-30
2024/02/21 06:03:46;;;;;;;19.15;7.50;;;;;;;;;;5115845;28;20791;-29
2024/02/21 06:06:12;;;;;;;18.13;7.47;;;;;;;;;;5116449;28;20011;-29
2024/02/21 06:08:37;;;;;;;15.33;7.93;;;;;;;;;;5115866;28;20104;-29
2024/02/21 06:11:02;;;;;;;14.02;7.82;;;;;;;;;;5116236;28;20250;-29
2024/02/21 06:13:27;;;;;;;17.10;7.93;;;;;;;;;;5115730;28;20380;-29
2024/02/21 06:15:52;;;;;;;15.15;7.32;;;;;;;;;;5115928;28;20374;-29
2024/02/21 06:18:18;;;;;;;21.50;8.20;;;;;;;;;;5115622;28;20094;-29
2024/02/21 06:20:43;;;;;;;17.55;8.40;;;;;;;;;;5115915;28;20023;-29
2024/02/21 06:23:09;;;;;;;22.33;9.87;;;;;;;;;;5115753;28;20450;-29
2024/02/21 06:25:34;;;;;;;18.95;8.27;;;;;;;;;;5115522;28;20307;-29
2024/02/21 06:27:59;;;;;;;23.77;7.80;;;;;;;;;;5115460;28;20073;-29
2024/02/21 06:30:24;;;;;;;16.50;7.73;;;;;;;;;;5115450;28;20350;-29
2024/02/21 06:32:49;;;;;;;16.37;7.93;;;;;;;;;;5115315;28;20246;-29
2024/02/21 06:35:14;;;;;;;15.10;7.60;;;;;;;;;;5115842;28;20265;-29
2024/02/21 06:37:40;;;;;;;18.17;7.47;;;;;;;;;;5115286;28;20250;-29
2024/02/21 06:40:05;;;;;;;20.48;8.70;;;;;;;;;;5115242;28;20257;-29
2024/02/21 06:42:30;;;;;;;17.30;7.63;;;;;;;;;;5115192;28;20382;-29
2024/02/21 06:44:56;;;;;;;17.42;8.45;;;;;;;;;;5115003;28;20477;-29
2024/02/21 06:47:21;;;;;;;16.35;7.53;;;;;;;;;;5114654;28;20086;-29
2024/02/21 06:49:50;;;;;;;22.50;8.10;;;;;;;;;;5114645;28;20099;-29
2024/02/21 06:52:17;;;;;;;21.40;8.50;;;;;;;;;;5114943;28;20084;-29
2024/02/21 06:54:42;;;;;;;17.13;8.05;;;;;;;;;;5114865;28;20019;-29
2024/02/21 06:57:07;;;;;;;19.42;7.93;;;;;;;;;;5115195;28;20020;-30
2024/02/21 06:59:32;;;;;;;15.65;8.18;;;;;;;;;;5115413;28;20412;-29
2024/02/21 07:01:58;;;;;;;16.03;8.27;;;;;;;;;;5115255;28;20027;-29
2024/02/21 07:04:23;;;;;;;18.80;8.18;;;;;;;;;;5114606;28;20297;-29
2024/02/21 07:06:48;;;;;;;17.27;8.65;;;;;;;;;;5114728;28;20377;-29
2024/02/21 07:09:13;;;;;;;17.83;8.60;;;;;;;;;;5114651;28;20023;-29
2024/02/21 07:11:38;;;;;;;22.23;9.07;;;;;;;;;;5114973;28;20008;-29
2024/02/21 07:14:04;;;;;;;21.93;8.90;;;;;;;;;;5096318;28;20364;-29
2024/02/21 07:16:29;;;;;;;19.25;8.90;;;;;;;;;;5114544;28;20250;-29
2024/02/21 07:18:55;;;;;;;22.57;7.97;;;;;;;;;;5113699;28;20026;-29
2024/02/21 07:21:20;;;;;;;20.42;8.85;;;;;;;;;;5114370;28;20249;-29
2024/02/21 07:23:45;;;;;;;19.33;9.07;;;;;;;;;;5114695;28;20023;-29
2024/02/21 07:26:10;;;;;;;17.40;8.33;;;;;;;;;;5112130;28;20773;-29
2024/02/21 07:28:35;;;;;;;18.17;8.85;;;;;;;;;;5112141;28;20263;-29
2024/02/21 07:31:01;;;;;;;19.13;9.02;;;;;;;;;;5112310;28;20047;-29
2024/02/21 07:33:26;;;;;;;23.40;8.73;;;;;;;;;;5112471;28;20015;-29
2024/02/21 07:35:51;;;;;;;19.83;8.37;;;;;;;;;;5112328;28;20673;-29
2024/02/21 07:38:18;;;;;;;27.77;9.47;;;;;;;;;;5112427;28;20264;-29
2024/02/21 07:40:44;;;;;;;19.88;8.38;;;;;;;;;;5113825;28;20280;-30
2024/02/21 07:43:09;;;;;;;19.83;8.32;;;;;;;;;;5114565;28;20461;-29
2024/02/21 07:45:34;;;;;;;19.13;7.73;;;;;;;;;;5113947;28;20107;-29
2024/02/21 07:48:00;;;;;;;18.90;8.43;;;;;;;;;;5114510;28;20249;-29
2024/02/21 07:50:25;;;;;;;21.67;8.70;;;;;;;;;;5113984;28;20294;-29
2024/02/21 07:52:50;;;;;;;27.10;9.88;;;;;;;;;;5114474;28;20039;-28
2024/02/21 07:55:15;;;;;;;22.48;9.80;;;;;;;;;;5113732;28;20024;-29
2024/02/21 07:57:41;;;;;;;19.40;9.38;;;;;;;;;;5113841;28;20019;-29
2024/02/21 08:00:09;;;;;;;24.55;9.00;;;;;;;;;;5114203;28;20027;-29
2024/02/21 08:02:34;;;;;;;23.10;9.20;;;;;;;;;;5113792;28;20027;-29
2024/02/21 08:04:59;;;;;;;19.10;8.37;;;;;;;;;;5113538;28;20043;-28
2024/02/21 08:07:24;;;;;;;20.17;8.93;;;;;;;;;;5114312;28;20257;-29
2024/02/21 08:09:50;;;;;;;19.40;9.15;;;;;;;;;;5113733;28;20027;-29
2024/02/21 08:12:15;;;;;;;19.00;9.20;;;;;;;;;;5114240;28;20065;-29
2024/02/21 08:14:40;;;;;;;16.90;8.83;;;;;;;;;;5113726;28;20386;-28
2024/02/21 08:17:05;;;;;;;20.20;8.60;;;;;;;;;;5114264;28;20297;-33
2024/02/21 08:19:30;;;;;;;18.48;8.55;;;;;;;;;;5113678;28;20253;-28
2024/02/21 08:21:56;;;;;;;22.70;9.35;;;;;;;;;;5113807;28;20016;-28
2024/02/21 08:24:22;;;;;;;21.87;8.90;;;;;;;;;;5113595;28;20443;-28
2024/02/21 08:26:47;;;;;;;23.38;9.48;;;;;;;;;;5113877;28;20257;-29
2024/02/21 08:29:13;;;;;;;27.73;9.87;;;;;;;;;;5113673;28;20563;-29
2024/02/21 08:31:38;;;;;;;23.90;9.65;;;;;;;;;;5113962;28;20257;-28
2024/02/21 08:34:03;;;;;;;22.02;9.40;;;;;;;;;;5113618;28;20031;-28
2024/02/21 08:36:30;;;;;;;26.75;9.80;;;;;;;;;;5113677;28;20419;-29
2024/02/21 08:38:55;;;;;;;19.27;9.57;;;;;;;;;;5113884;28;20025;-31
2024/02/21 08:41:23;;;;;;;21.83;9.23;;;;;;;;;;5095337;28;20403;-29
2024/02/21 08:43:48;;;;;;;30.70;10.27;;;;;;;;;;5113370;28;20039;-29
2024/02/21 08:46:13;;;;;;;26.83;10.33;;;;;;;;;;5113504;28;20454;-29
2024/02/21 08:48:38;;;;;;;22.70;9.73;;;;;;;;;;5113387;28;20257;-29
2024/02/21 08:51:04;;;;;;;21.25;9.75;;;;;;;;;;5113325;28;20344;-29
2024/02/21 08:53:29;;;;;;;23.88;10.35;;;;;;;;;;5113368;28;20015;-29
2024/02/21 08:55:54;;;;;;;21.30;10.03;;;;;;;;;;5095123;28;20078;-29
2024/02/21 08:58:19;;;;;;;21.27;9.37;;;;;;;;;;5113347;28;20804;-29
2024/02/21 09:00:47;;;;;;;21.38;11.27;;;;;;;;;;5113262;28;20250;-29
2024/02/21 09:03:12;;;;;;;21.25;9.73;;;;;;;;;;5113185;28;20039;-29
2024/02/21 09:05:37;;;;;;;25.10;11.02;;;;;;;;;;5095928;28;20023;-29
2024/02/21 09:08:04;;;;;;;25.00;10.77;;;;;;;;;;5113277;28;20068;-28
2024/02/21 09:10:29;;;;;;;21.25;10.70;;;;;;;;;;5113505;28;20286;-29
2024/02/21 09:12:54;;;;;;;19.93;10.10;;;;;;;;;;5116620;28;20091;-29
2024/02/21 09:15:19;;;;;;;21.45;10.10;;;;;;;;;;5098662;28;20262;-29
2024/02/21 09:17:45;;;;;;;21.90;10.57;;;;;;;;;;5098665;28;20432;-29
2024/02/21 09:20:11;;;;;;;22.00;10.45;;;;;;;;;;5099421;28;20028;-29
2024/02/21 09:22:37;;;;;;;24.85;11.25;;;;;;;;;;5117078;28;20030;-29
2024/02/21 09:25:03;;;;;;;21.60;10.85;;;;;;;;;;5115976;28;20098;-29
2024/02/21 09:27:28;;;;;;;16.45;9.85;;;;;;;;;;5116589;28;20359;-30
2024/02/21 09:29:54;;;;;;;21.77;9.93;;;;;;;;;;5117193;28;20024;-30
2024/02/21 09:32:19;;;;;;;21.75;10.05;;;;;;;;;;5116871;28;20443;-29
2024/02/21 09:34:45;;;;;;;21.63;11.05;;;;;;;;;;5098308;28;20541;-30
2024/02/21 09:37:10;;;;;;;23.05;9.85;;;;;;;;;;5116568;28;20379;-29
2024/02/21 09:39:35;;;;;;;18.10;9.45;;;;;;;;;;5116500;28;20020;-29
2024/02/21 09:42:05;;;;;;;16.13;7.55;;;;;;;;;;5116665;28;20012;-29
2024/02/21 09:44:33;;;;;;;21.88;9.70;;;;;;;;;;5116832;28;20150;-29
2024/02/21 09:47:13;;;;;;;18.17;9.27;;;;;;;;;;5116307;28;20012;-29
2024/02/21 09:49:40;;;;;;;20.17;9.40;;;;;;;;;;5116551;28;20027;-29
2024/02/21 09:52:06;;;;;;;22.23;9.50;;;;;;;;;;5116282;28;20016;-29
2024/02/21 09:54:32;;;;;;;16.38;8.27;;;;;;;;;;5116297;28;20030;-28
2024/02/21 09:56:58;;;;;;;22.58;8.25;;;;;;;;;;5116709;28;20016;-28
2024/02/21 09:59:24;;;;;;;23.00;8.80;;;;;;;;;;5097817;28;20110;-30
2024/02/21 10:01:50;;;;;;;15.18;7.88;;;;;;;;;;5116063;28;20022;-28
2024/02/21 10:04:16;;;;;;;17.60;8.32;;;;;;;;;;5115808;28;20546;-28
2024/02/21 10:06:41;;;;;;;21.17;8.07;;;;;;;;;;5116257;28;20019;-28
2024/02/21 10:09:07;;;;;;;21.48;8.20;;;;;;;;;;5115857;28;20042;-28
2024/02/21 10:11:34;;;;;;;17.85;7.68;;;;;;;;;;5116069;28;20015;-28
2024/02/21 10:14:04;;;;;;;16.20;7.50;;;;;;;;;;5097533;28;20102;-29
2024/02/21 10:16:29;;;;;;;15.27;7.05;;;;;;;;;;5115608;28;20080;-28
2024/02/21 10:18:55;;;;;;;16.43;7.63;;;;;;;;;;5116225;28;20015;-29
2024/02/21 10:21:20;;;;;;;12.03;6.50;;;;;;;;;;5115841;28;20245;-29
2024/02/21 10:23:46;;;;;;;15.07;6.68;;;;;;;;;;5115434;28;20313;-29
2024/02/21 10:26:11;;;;;;;17.00;6.80;;;;;;;;;;5115541;28;20062;-29
2024/02/21 10:28:44;;;;;;;13.70;7.00;;;;;;;;;;5097969;28;20047;-29
2024/02/21 10:31:10;;;;;;;13.80;6.55;;;;;;;;;;5115340;28;20019;-29
2024/02/21 10:33:35;;;;;;;15.30;6.55;;;;;;;;;;5115298;28;20088;-29
2024/02/21 10:36:10;;;;;;;14.18;6.53;;;;;;;;;;5115543;28;20015;-29
2024/02/21 10:38:36;;;;;;;12.43;6.72;;;;;;;;;;5115352;28;20025;-29
2024/02/21 10:41:03;;;;;;;13.43;6.03;;;;;;;;;;5115517;28;20103;-31
2024/02/21 10:43:30;;;;;;;12.40;6.22;;;;;;;;;;5096767;28;20441;-29
2024/02/21 10:45:55;;;;;;;12.13;6.07;;;;;;;;;;5115113;28;20018;-29
2024/02/21 10:48:25;;;;;;;10.82;5.90;;;;;;;;;;5115103;28;20020;-29
2024/02/21 10:50:57;;;;;;;13.90;6.32;;;;;;;;;;5115000;28;20015;-29
2024/02/21 10:53:41;;;;;;;11.63;5.50;;;;;;;;;;5115257;28;20024;-29
2024/02/21 10:56:20;;;;;;;11.40;5.43;;;;;;;;;;5096836;28;20024;-29
2024/02/21 10:58:45;;;;;;;13.50;5.88;;;;;;;;;;5096627;28;20475;-29
2024/02/21 11:01:12;;;;;;;12.20;5.97;;;;;;;;;;5115432;28;20050;-29
2024/02/21 11:03:38;;;;;;;8.75;4.65;;;;;;;;;;5114663;28;20047;-28
2024/02/21 11:06:05;;;;;;;11.50;5.30;;;;;;;;;;5115316;28;20020;-29
2024/02/21 11:08:30;;;;;;;7.40;4.85;;;;;;;;;;5114892;28;20462;-29
2024/02/21 11:11:00;;;;;;;7.97;5.13;;;;;;;;;;5114571;28;20008;-29
2024/02/21 11:13:37;;;;;;;10.32;5.95;;;;;;;;;;5114899;28;20047;-29
2024/02/21 11:16:09;;;;;;;10.43;5.60;;;;;;;;;;5114505;28;20098;-29
2024/02/21 11:18:35;;;;;;;9.30;4.85;;;;;;;;;;5114102;28;20015;-29
2024/02/21 11:21:00;;;;;;;10.15;5.30;;;;;;;;;;5113936;28;20420;-29
2024/02/21 11:23:26;;;;;;;8.97;4.67;;;;;;;;;;5113804;28;20481;-29
2024/02/21 11:25:51;;;;;;;10.68;5.20;;;;;;;;;;5114076;28;20358;-29
2024/02/21 11:28:25;;;;;;;10.47;5.23;;;;;;;;;;5114099;28;20015;-29
2024/02/21 11:30:51;;;;;;;10.70;5.25;;;;;;;;;;5114019;28;20292;-29
2024/02/21 11:33:16;;;;;;;10.68;5.50;;;;;;;;;;5114123;28;20094;-29
2024/02/21 11:35:41;;;;;;;11.07;5.70;;;;;;;;;;5113793;28;20028;-29
2024/02/21 11:38:16;;;;;;;10.33;5.63;;;;;;;;;;5114503;28;20034;-30
2024/02/21 11:40:42;;;;;;;9.10;5.95;;;;;;;;;;5114245;28;20256;-29
2024/02/21 11:43:07;;;;;;;10.10;5.97;;;;;;;;;;5096114;28;20475;-29
2024/02/21 11:45:33;;;;;;;10.00;5.90;;;;;;;;;;5113971;28;20026;-30
2024/02/21 11:48:00;;;;;;;10.35;6.15;;;;;;;;;;5114305;28;20020;-29
2024/02/21 11:50:25;;;;;;;11.48;6.25;;;;;;;;;;5095951;28;20019;-29
2024/02/21 11:52:50;;;;;;;10.82;6.60;;;;;;;;;;5114282;28;20027;-29
2024/02/21 11:55:15;;;;;;;14.98;6.07;;;;;;;;;;5114504;28;20106;-29
2024/02/21 11:57:43;;;;;;;9.87;5.57;;;;;;;;;;5113974;28;20030;-29
2024/02/21 12:00:20;;;;;;;12.68;5.50;;;;;;;;;;5113858;28;20046;-29
2024/02/21 12:02:46;;;;;;;12.90;6.40;;;;;;;;;;5113597;28;20051;-30
2024/02/21 12:05:11;;;;;;;10.65;6.10;;;;;;;;;;5113788;28;20521;-29
2024/02/21 12:07:39;;;;;;;11.35;6.00;;;;;;;;;;5113779;28;20019;-29
2024/02/21 12:10:06;;;;;;;11.60;6.03;;;;;;;;;;5113997;28;20462;-30
2024/02/21 12:12:36;;;;;;;11.75;5.57;;;;;;;;;;5114238;28;20411;-29
2024/02/21 12:15:01;;;;;;;9.52;6.18;;;;;;;;;;5113703;28;20031;-29
2024/02/21 12:17:26;;;;;;;10.30;6.45;;;;;;;;;;5113965;28;20028;-29
2024/02/21 12:19:51;;;;;;;12.73;6.90;;;;;;;;;;5113683;28;20356;-29
2024/02/21 12:22:20;;;;;;;9.70;6.53;;;;;;;;;;5114224;28;20285;-29
2024/02/21 12:24:47;;;;;;;11.38;6.35;;;;;;;;;;5114056;28;20277;-28
2024/02/21 12:27:12;;;;;;;12.88;6.88;;;;;;;;;;5114739;28;20467;-29
2024/02/21 12:29:38;;;;;;;9.90;6.60;;;;;;;;;;5113587;28;20016;-29
2024/02/21 12:32:04;;;;;;;11.00;6.30;;;;;;;;;;5113551;28;20257;-29
2024/02/21 12:34:31;;;;;;;12.43;6.10;;;;;;;;;;5114343;28;20280;-29
2024/02/21 12:36:57;;;;;;;10.93;6.40;;;;;;;;;;5113752;28;20466;-29
2024/02/21 12:39:22;;;;;;;10.27;5.75;;;;;;;;;;5114053;28;20088;-29
2024/02/21 12:41:47;;;;;;;16.52;6.28;;;;;;;;;;5113527;28;20522;-29
2024/02/21 12:44:12;;;;;;;10.02;5.85;;;;;;;;;;5113333;28;20015;-29
2024/02/21 12:46:39;;;;;;;11.27;5.80;;;;;;;;;;5114989;28;20020;-29
2024/02/21 12:49:04;;;;;;;10.60;5.95;;;;;;;;;;5117335;28;20245;-29
2024/02/21 12:51:30;;;;;;;10.40;6.00;;;;;;;;;;5117334;28;20019;-29
2024/02/21 12:53:56;;;;;;;10.35;5.80;;;;;;;;;;5117300;28;20023;-29
2024/02/21 12:56:21;;;;;;;12.23;6.38;;;;;;;;;;5117863;28;20051;-29
2024/02/21 12:58:46;;;;;;;11.50;5.80;;;;;;;;;;5117747;28;20096;-29
2024/02/21 13:01:11;;;;;;;11.63;6.10;;;;;;;;;;5117153;28;20881;-29
2024/02/21 13:03:37;;;;;;;23.08;6.53;;;;;;;;;;5117280;28;20285;-29
2024/02/21 13:06:03;;;;;;;9.18;5.50;;;;;;;;;;5117342;28;20022;-29
2024/02/21 13:08:28;;;;;;;10.68;5.53;;;;;;;;;;5117545;28;20444;-29
2024/02/21 13:10:53;;;;;;;10.77;5.90;;;;;;;;;;5117051;28;20063;-29
2024/02/21 13:13:18;;;;;;;11.10;5.32;;;;;;;;;;5117136;28;20030;-29
2024/02/21 13:15:44;;;;;;;8.35;5.43;;;;;;;;;;5116776;28;20474;-29
2024/02/21 13:18:09;;;;;;;9.27;5.17;;;;;;;;;;5116767;28;20466;-29
2024/02/21 13:20:35;;;;;;;11.82;5.45;;;;;;;;;;5116809;28;20106;-29
2024/02/21 13:23:00;;;;;;;11.38;5.60;;;;;;;;;;5116994;28;20031;-29
2024/02/21 13:25:25;;;;;;;11.50;5.53;;;;;;;;;;5117173;28;20072;-29
2024/02/21 13:27:51;;;;;;;10.13;4.87;;;;;;;;;;5116672;28;20288;-29
2024/02/21 13:30:16;;;;;;;11.30;5.63;;;;;;;;;;5116839;28;20285;-29
2024/02/21 13:32:46;;;;;;;11.38;4.93;;;;;;;;;;5117099;28;20012;-29
2024/02/21 13:35:11;;;;;;;9.82;5.30;;;;;;;;;;5116806;28;20020;-29
2024/02/21 13:37:36;;;;;;;10.23;4.88;;;;;;;;;;5116355;28;20020;-29
2024/02/21 13:40:03;;;;;;;10.07;4.30;;;;;;;;;;5116357;28;20104;-29
2024/02/21 13:42:28;;;;;;;8.93;5.47;;;;;;;;;;5116305;28;20019;-29
2024/02/21 13:44:53;;;;;;;11.53;4.80;;;;;;;;;;5116409;28;20020;-29
2024/02/21 13:47:18;;;;;;;12.35;4.82;;;;;;;;;;5116289;28;20011;-29
2024/02/21 13:49:43;;;;;;;10.35;4.40;;;;;;;;;;5116269;28;20051;-29
2024/02/21 13:52:09;;;;;;;13.20;4.55;;;;;;;;;;5116769;28;20043;-29
2024/02/21 13:54:34;;;;;;;13.80;4.50;;;;;;;;;;5116148;28;20386;-29
2024/02/21 13:56:59;;;;;;;10.02;4.80;;;;;;;;;;5097529;28;20015;-29
2024/02/21 13:59:26;;;;;;;10.10;4.60;;;;;;;;;;5116601;28;20024;-29
2024/02/21 14:01:51;;;;;;;9.55;4.65;;;;;;;;;;5116184;28;20265;-29
2024/02/21 14:04:16;;;;;;;8.30;4.70;;;;;;;;;;5115715;28;20439;-29
2024/02/21 14:06:43;;;;;;;11.47;4.90;;;;;;;;;;5115950;28;20256;-29
2024/02/21 14:09:11;;;;;;;12.88;4.60;;;;;;;;;;5116170;28;20262;-28
2024/02/21 14:11:38;;;;;;;9.65;4.38;;;;;;;;;;5116060;28;20015;-29
2024/02/21 14:14:03;;;;;;;9.88;4.70;;;;;;;;;;5116900;28;20030;-29
2024/02/21 14:16:29;;;;;;;11.25;5.05;;;;;;;;;;5115721;28;20015;-29
2024/02/21 14:18:54;;;;;;;11.45;4.90;;;;;;;;;;5115671;28;20028;-29
2024/02/21 14:21:19;;;;;;;12.07;4.50;;;;;;;;;;5115677;28;20030;-29